Avioradar koristi kolačiće da bi Vam omogućio jednostavnije i ugodnije korištenje stranice. 

AVIORADAR - Croatian aviation website

METAR & TAF

[Source: ADDS]
METAR
LDZA 190530Z 28003KT 250V310 8000 -RA BKN030 07/06 Q1016 NOSIG =
LDZA 190525Z 1906/2006 VRB02KT 9999 SCT015 OVC035 TX11/1914Z TN06/2005Z PROB40 TEMPO 1906/1922 4500 -RA PROB30 TEMPO 1906/1909 BKN010 OVC020 PROB30 TEMPO 1914/1917 SHRA FEW020TCU BKN030 LDSP 190530Z 33007KT CAVOK 09/02 Q1013 NOSIG =
LDSP 190525Z 1906/2006 31005KT 9999 SCT030 TX15/1913Z TN05/2004Z BECMG 1909/1911 23008KT PROB40 1912/1916 23010KT FEW027TCU BKN030 BECMG 1915/1917 31006KT LDDU 190530Z 07006KT 030V110 9999 FEW050 09/03 Q1013 NOSIG =
LDDU 190533Z 1906/2006 20007KT 9999 SCT030 TX12/1912Z TN10/2005Z BECMG 1910/1912 26008KT PROB30 TEMPO 1912/1916 FEW027CB SCT030 TEMPO 1915/1917 29010KT PROB30 TEMPO 1918/1920 05007KT TEMPO 2000/2006 TS FEW020CB BKN023 LDPL 190530Z VRB02KT CAVOK 09/04 Q1015 NOSIG =
LDPL 190525Z 1906/2006 06009KT CAVOK TX14/1912Z TN05/2005Z BECMG 1911/1913 28008KT PROB30 TEMPO 1912/1916 FEW040TCU BECMG 1916/1918 31005KT LDZD 190530Z 32003KT 290V010 9999 FEW040 04/02 Q1014 NOSIG =
LDZD 190525Z 1906/2006 04005KT 9999 SCT040 TX15/1913Z TN05/2004Z BECMG 1909/1911 33010KT PROB30 TEMPO 1911/1915 30012KT FEW040TCU SCT050 BECMG 1916/1918 VRB02KT LDRI 190530Z 35005KT 9999 FEW030 10/02 Q1015 =
LDRI 190525Z 1906/2006 06008KT 9999 SCT045 TX13/1912Z TN08/2004Z LDOS 190530Z 25005KT 3000 BR SCT003 OVC027 07/06 Q1015 =
LDOS 190525Z 1906/2006 28005KT 9999 SCT010 BKN030 TX11/1914Z TN06/2004Z TEMPO 1906/1910 2000 BR BKN005 PROB30 TEMPO 1912/1918 SHRA FEW030TCU SCT035 PROB40 1918/2006 2000 BR MIFG PROB40 2002/2006 BKN005
TAF
LDZA 190525Z 1906/2006 VRB02KT 9999 SCT015 OVC035 TX11/1914Z TN06/2005Z PROB40 TEMPO 1906/1922 4500 -RA PROB30 TEMPO 1906/1909 BKN010 OVC020 PROB30 TEMPO 1914/1917 SHRA FEW020TCU BKN030 =
LDSP 190525Z 1906/2006 31005KT 9999 SCT030 TX15/1913Z TN05/2004Z BECMG 1909/1911 23008KT PROB40 1912/1916 23010KT FEW027TCU BKN030 BECMG 1915/1917 31006KT =
LDDU 190533Z 1906/2006 20007KT 9999 SCT030 TX12/1912Z TN10/2005Z BECMG 1910/1912 26008KT PROB30 TEMPO 1912/1916 FEW027CB SCT030 TEMPO 1915/1917 29010KT PROB30 TEMPO 1918/1920 05007KT TEMPO 2000/2006 TS FEW020CB BKN023 =
LDPL 190525Z 1906/2006 06009KT CAVOK TX14/1912Z TN05/2005Z BECMG 1911/1913 28008KT PROB30 TEMPO 1912/1916 FEW040TCU BECMG 1916/1918 31005KT =
LDZD 190525Z 1906/2006 04005KT 9999 SCT040 TX15/1913Z TN05/2004Z BECMG 1909/1911 33010KT PROB30 TEMPO 1911/1915 30012KT FEW040TCU SCT050 BECMG 1916/1918 VRB02KT =
LDRI 190525Z 1906/2006 06008KT 9999 SCT045 TX13/1912Z TN08/2004Z =
LDOS 190525Z 1906/2006 28005KT 9999 SCT010 BKN030 TX11/1914Z TN06/2004Z TEMPO 1906/1910 2000 BR BKN005 PROB30 TEMPO 1912/1918 SHRA FEW030TCU SCT035 PROB40 1918/2006 2000 BR MIFG PROB40 2002/2006 BKN005 =
SR / SS: 04:01 / 17:47 UTC (Zagreb 2021-04-19)